Time;durP1;ratioP1;P1;durP2;ratioP2;P2;SDS_P1;SDS_P2;PMS_P1;PMS_P2;Temp;Humidity;BMP_temperature;BMP_pressure;BME280_temperature;BME280_humidity;BME280_pressure;Samples;Min_cycle;Max_cycle;Signal;HPM_P1;HPM_P2
2022/07/16 00:02:18;;;;;;;7.85;4.13;;;18.50;52.00;;;18.51;61.31;100962.91;4987611;28;20058;-76
2022/07/16 00:04:45;;;;;;;5.82;3.33;;;18.60;52.40;;;18.39;62.56;100958.16;5001777;28;20504;-77
2022/07/16 00:07:13;;;;;;;6.05;3.55;;;18.50;52.40;;;18.46;61.00;100953.41;4985954;28;20055;-77
2022/07/16 00:09:40;;;;;;;7.82;3.67;;;18.50;52.10;;;18.50;60.88;100957.69;4988379;28;20042;-76
2022/07/16 00:12:07;;;;;;;8.07;3.80;;;18.50;52.30;;;18.51;60.52;100952.25;4988773;28;20042;-77
2022/07/16 00:14:34;;;;;;;7.05;3.65;;;18.50;52.40;;;18.43;62.04;100952.63;4989250;28;20048;-77
2022/07/16 00:17:01;;;;;;;5.90;3.42;;;18.70;52.70;;;18.44;60.77;100953.50;4989096;28;20049;-77
2022/07/16 00:19:28;;;;;;;4.97;3.75;;;18.50;52.40;;;18.29;64.00;100952.41;4977061;28;20058;-77
2022/07/16 00:21:57;;;;;;;5.32;4.00;;;18.40;52.70;;;18.17;65.68;100947.66;4970693;28;20054;-77
2022/07/16 00:24:25;;;;;;;6.65;4.00;;;18.40;53.10;;;18.06;68.63;100950.81;4952669;28;20051;-77
2022/07/16 00:26:53;;;;;;;6.80;4.25;;;18.50;53.50;;;18.00;68.23;100955.47;4969532;28;20504;-77
2022/07/16 00:29:20;;;;;;;7.00;3.67;;;18.20;53.40;;;17.76;70.50;100957.47;4952252;28;20039;-77
2022/07/16 00:31:49;;;;;;;6.80;4.00;;;18.10;53.60;;;17.82;67.78;100951.84;4953056;28;20146;-77
2022/07/16 00:34:17;;;;;;;6.43;3.50;;;18.10;53.50;;;17.85;69.03;100959.69;4968274;28;20049;-77
2022/07/16 00:36:45;;;;;;;6.00;4.13;;;18.00;53.70;;;17.82;69.00;100951.00;4953036;28;20377;-77
2022/07/16 00:39:14;;;;;;;6.50;4.25;;;17.90;53.90;;;17.72;71.57;100953.22;4968082;28;20831;-77
2022/07/16 00:41:43;;;;;;;9.40;4.80;;;17.90;54.30;;;17.66;71.81;100953.47;4968769;28;20058;-77
2022/07/16 00:44:15;;;;;;;9.27;4.72;;;18.40;54.50;;;17.72;71.08;100950.56;4968375;28;20043;-76
2022/07/16 00:46:44;;;;;;;13.30;5.55;;;17.80;54.30;;;17.71;73.20;100960.31;4953114;28;20043;-77
2022/07/16 00:49:13;;;;;;;7.23;5.17;;;17.80;54.70;;;17.63;72.05;100957.13;4936451;28;20389;-77
2022/07/16 00:51:49;;;;;;;10.10;5.43;;;17.80;54.50;;;17.55;72.89;100964.59;4967857;28;20047;-77
2022/07/16 00:54:18;;;;;;;10.65;5.75;;;17.80;54.70;;;17.47;76.01;100958.72;4967955;28;20043;-77
2022/07/16 00:56:46;;;;;;;8.52;5.32;;;17.60;54.90;;;17.47;75.18;100970.25;4968678;28;20407;-77
2022/07/16 00:59:14;;;;;;;9.77;6.55;;;17.50;55.00;;;17.41;76.29;100962.56;4952083;28;20065;-77
2022/07/16 01:01:41;;;;;;;12.15;6.28;;;17.80;55.30;;;17.29;79.60;100961.25;4968356;28;20643;-78
2022/07/16 01:04:14;;;;;;;9.98;6.18;;;17.50;55.80;;;17.29;79.33;100964.78;4953010;28;20150;-77
2022/07/16 01:06:41;;;;;;;13.90;5.93;;;17.50;55.80;;;17.24;83.62;100974.75;4968396;28;20411;-77
2022/07/16 01:09:09;;;;;;;11.55;5.75;;;17.50;56.40;;;17.12;86.54;100965.50;4954361;28;20042;-77
2022/07/16 01:11:36;;;;;;;11.43;5.45;;;17.40;56.70;;;17.08;84.70;100971.00;4987367;28;20046;-77
2022/07/16 01:14:05;;;;;;;8.68;5.18;;;17.30;56.60;;;16.85;87.96;100967.47;4987807;28;20655;-78
2022/07/16 01:16:32;;;;;;;8.98;5.38;;;17.90;57.50;;;16.83;86.67;100966.69;4974757;28;20047;-77
2022/07/16 01:19:00;;;;;;;12.57;5.88;;;17.10;56.90;;;16.71;88.04;100968.91;4987363;28;20066;-77
2022/07/16 01:21:27;;;;;;;8.10;4.75;;;17.00;57.10;;;16.63;87.46;100972.78;4975873;28;20050;-77
2022/07/16 01:23:53;;;;;;;8.68;5.20;;;16.90;57.50;;;16.63;89.45;100976.34;4991278;28;20042;-77
2022/07/16 01:26:22;;;;;;;8.52;5.47;;;16.80;57.60;;;16.63;90.17;100968.38;4975190;28;20077;-77
2022/07/16 01:28:49;;;;;;;7.93;5.55;;;16.80;57.80;;;16.58;90.38;100971.19;4991272;28;20448;-76
2022/07/16 01:31:16;;;;;;;9.70;5.78;;;16.80;58.20;;;16.51;90.57;100964.38;4991371;28;20045;-77
2022/07/16 01:33:43;;;;;;;9.25;5.90;;;17.70;58.70;;;16.39;94.27;100963.06;4990673;28;20065;-77
2022/07/16 01:36:15;;;;;;;8.05;5.60;;;16.70;59.00;;;16.24;96.84;100974.28;4974908;28;20042;-77
2022/07/16 01:38:44;;;;;;;8.20;4.82;;;16.60;59.30;;;16.27;93.78;100971.50;4991545;28;20058;-77
2022/07/16 01:41:13;;;;;;;8.65;5.20;;;16.50;59.20;;;16.19;95.42;100969.16;4972035;28;20050;-78
2022/07/16 01:43:41;;;;;;;8.73;5.53;;;16.40;59.40;;;16.28;95.82;100975.91;4972101;28;20130;-78
2022/07/16 01:46:08;;;;;;;8.35;4.75;;;16.40;59.80;;;16.10;98.29;100973.03;4973309;28;20055;-76
2022/07/16 01:48:35;;;;;;;7.22;4.78;;;16.40;60.50;;;16.23;92.71;100965.44;4972504;28;20137;-76
2022/07/16 01:51:02;;;;;;;8.18;5.75;;;16.30;59.70;;;16.20;94.66;100967.38;4974998;28;20035;-78
2022/07/16 01:53:29;;;;;;;6.57;4.45;;;15.50;59.60;;;16.14;93.94;100973.78;4980747;28;20051;-79
2022/07/16 01:55:58;;;;;;;8.40;4.80;;;16.30;60.30;;;16.07;97.09;100966.94;5005744;28;20039;-78
2022/07/16 01:58:27;;;;;;;8.05;4.70;;;16.30;60.70;;;16.08;95.00;100960.72;4957568;28;20051;-78
2022/07/16 02:00:54;;;;;;;8.18;6.10;;;16.20;60.70;;;16.05;98.13;100961.72;4972512;28;20055;-79
2022/07/16 02:03:21;;;;;;;12.07;6.22;;;16.20;61.50;;;15.99;99.00;100954.84;4972122;28;20046;-78
2022/07/16 02:05:49;;;;;;;9.00;5.75;;;16.10;62.00;;;15.89;99.62;100958.75;4956752;28;20050;-78
2022/07/16 02:08:16;;;;;;;10.23;5.68;;;16.10;62.20;;;15.83;100.00;100961.63;4956335;28;20142;-78
2022/07/16 02:10:43;;;;;;;9.95;5.65;;;16.10;62.80;;;15.62;100.00;100958.81;4987047;28;20046;-78
2022/07/16 02:13:10;;;;;;;8.55;4.93;;;15.90;63.40;;;15.58;100.00;100960.72;4993272;28;20046;-78
2022/07/16 02:15:38;;;;;;;10.48;6.03;;;16.10;63.80;;;15.69;100.00;100962.13;4994078;28;20042;-78
2022/07/16 02:18:05;;;;;;;8.68;5.53;;;15.90;63.80;;;15.79;100.00;100963.50;4986248;28;20052;-78
2022/07/16 02:20:32;;;;;;;7.68;5.53;;;15.90;63.90;;;15.74;100.00;100965.47;4983153;28;20500;-78
2022/07/16 02:22:59;;;;;;;9.93;5.32;;;15.90;64.40;;;15.79;100.00;100955.53;4974676;28;20303;-77
2022/07/16 02:25:26;;;;;;;12.80;5.95;;;15.90;64.70;;;15.63;100.00;100962.31;4989480;28;20058;-78
2022/07/16 02:28:08;;;;;;;11.65;5.95;;;15.90;65.30;;;15.52;100.00;100962.72;4976542;28;20061;-78
2022/07/16 02:30:43;;;;;;;9.30;5.85;;;15.80;65.50;;;15.48;100.00;100971.72;4991866;28;20050;-78
2022/07/16 02:33:13;;;;;;;10.25;5.65;;;15.80;67.00;;;15.35;100.00;100969.47;4975067;28;20050;-78
2022/07/16 02:35:41;;;;;;;9.43;5.28;;;15.70;67.80;;;15.20;100.00;100970.84;4975593;28;20076;-78
2022/07/16 02:38:10;;;;;;;9.35;5.43;;;15.70;68.40;;;15.20;100.00;100959.41;4976000;28;20575;-77
2022/07/16 02:40:42;;;;;;;7.65;5.22;;;15.60;69.10;;;15.25;100.00;100974.22;4991328;28;20050;-78
2022/07/16 02:43:11;;;;;;;11.32;5.93;;;15.40;69.50;;;15.21;100.00;100971.72;4974688;28;20415;-76
2022/07/16 02:45:41;;;;;;;11.07;5.85;;;15.50;70.40;;;15.08;100.00;100973.94;4990180;28;20582;-79
2022/07/16 02:48:10;;;;;;;9.65;5.95;;;15.40;72.70;;;14.99;100.00;100970.66;4976076;28;20047;-77
2022/07/16 02:50:38;;;;;;;8.98;6.05;;;15.30;74.00;;;14.93;100.00;100972.63;4970143;28;20060;-78
2022/07/16 02:53:06;;;;;;;10.95;6.07;;;15.20;74.40;;;14.90;100.00;100970.94;4954980;28;20117;-77
2022/07/16 02:55:33;;;;;;;11.57;6.43;;;15.20;76.20;;;14.86;100.00;100964.03;4982170;28;20046;-79
2022/07/16 02:58:00;;;;;;;9.98;6.60;;;15.10;77.00;;;14.77;100.00;100970.47;4990711;28;20101;-77
2022/07/16 03:00:28;;;;;;;9.35;5.72;;;15.10;78.80;;;14.85;100.00;100967.59;4990358;28;20648;-78
2022/07/16 03:02:56;;;;;;;11.25;6.43;;;15.00;79.70;;;14.76;100.00;100975.84;4973688;28;20519;-78
2022/07/16 03:05:24;;;;;;;10.57;5.68;;;15.00;80.90;;;14.78;100.00;100974.00;4973548;28;20085;-78
2022/07/16 03:07:52;;;;;;;6.88;5.22;;;15.00;81.10;;;14.81;100.00;100974.75;4973952;28;20046;-78
2022/07/16 03:10:19;;;;;;;10.23;5.90;;;15.00;81.60;;;14.84;100.00;100974.69;4989600;28;20042;-77
2022/07/16 03:12:46;;;;;;;9.68;5.65;;;15.00;81.90;;;14.77;100.00;100980.22;4989392;28;20038;-77
2022/07/16 03:15:13;;;;;;;11.50;6.05;;;15.00;82.20;;;14.56;100.00;100974.63;4989925;28;20042;-78
2022/07/16 03:17:41;;;;;;;10.18;6.45;;;14.90;83.10;;;14.63;100.00;100978.84;4973611;28;20428;-78
2022/07/16 03:20:11;;;;;;;7.22;4.72;;;14.90;83.30;;;14.59;100.00;100985.13;4989138;28;20050;-78
2022/07/16 03:22:44;;;;;;;7.13;5.20;;;14.80;83.50;;;14.60;100.00;100984.25;4989630;28;20042;-78
2022/07/16 03:25:11;;;;;;;8.48;5.32;;;14.80;84.10;;;14.30;100.00;100982.47;4973106;28;20357;-78
2022/07/16 03:27:38;;;;;;;7.68;5.10;;;14.70;84.10;;;14.45;100.00;100986.44;4989523;28;20049;-78
2022/07/16 03:30:07;;;;;;;6.63;5.13;;;14.70;84.30;;;14.36;100.00;100989.34;4988794;28;20038;-78
2022/07/16 03:32:34;;;;;;;8.88;5.97;;;14.60;85.40;;;14.29;100.00;100987.81;4990684;28;20043;-78
2022/07/16 03:35:06;;;;;;;11.15;6.25;;;14.60;85.90;;;14.32;100.00;100993.88;4989369;28;20097;-79
2022/07/16 03:37:33;;;;;;;7.70;5.18;;;14.60;86.60;;;14.28;100.00;100999.28;4974056;28;20673;-78
2022/07/16 03:40:00;;;;;;;10.35;5.30;;;14.40;87.20;;;14.17;100.00;100996.97;4989313;28;20057;-77
2022/07/16 03:42:27;;;;;;;7.13;5.40;;;14.50;87.60;;;14.11;100.00;100992.72;4988883;28;20053;-78
2022/07/16 03:44:54;;;;;;;7.53;5.55;;;14.50;88.80;;;14.06;100.00;100994.63;4973308;28;20058;-76
2022/07/16 03:47:21;;;;;;;7.78;5.25;;;14.40;89.20;;;14.11;100.00;100991.88;4989078;28;20038;-77
2022/07/16 03:49:48;;;;;;;14.70;5.88;;;14.40;89.30;;;14.06;100.00;100991.13;4972519;28;20061;-78
2022/07/16 03:52:15;;;;;;;6.53;4.75;;;14.30;89.70;;;14.16;100.00;101000.53;4990509;28;20096;-77
2022/07/16 03:54:42;;;;;;;9.88;5.85;;;14.30;89.00;;;14.16;100.00;100996.13;4989046;28;20035;-78
2022/07/16 03:57:09;;;;;;;7.70;4.90;;;14.30;89.00;;;14.15;100.00;100999.69;4989341;28;20371;-77
2022/07/16 03:59:36;;;;;;;5.82;4.75;;;14.30;89.60;;;14.10;100.00;101001.56;4989913;28;20411;-78
2022/07/16 04:02:03;;;;;;;7.72;5.40;;;14.30;89.80;;;14.15;100.00;101001.44;4989284;28;20406;-77
2022/07/16 04:04:30;;;;;;;6.40;4.78;;;14.30;89.80;;;13.99;100.00;101001.88;4972644;28;20072;-78
2022/07/16 04:06:57;;;;;;;9.07;5.00;;;14.50;90.20;;;13.99;100.00;100993.09;4989299;28;20575;-77
2022/07/16 04:09:24;;;;;;;6.28;4.97;;;14.30;90.40;;;14.09;100.00;101001.63;4967361;28;20046;-77
2022/07/16 04:11:51;;;;;;;7.07;4.97;;;14.20;90.60;;;14.06;100.00;101001.72;4984317;28;20120;-77
2022/07/16 04:14:18;;;;;;;5.15;4.30;;;14.30;90.80;;;14.03;100.00;101000.03;4988285;28;20042;-78
2022/07/16 04:16:45;;;;;;;7.18;4.63;;;14.50;91.10;;;14.13;100.00;101012.09;4987160;28;20415;-78
2022/07/16 04:19:12;;;;;;;6.68;4.82;;;14.20;90.90;;;14.13;100.00;101014.72;4978107;28;20045;-76
2022/07/16 04:21:39;;;;;;;7.70;4.40;;;14.30;91.00;;;14.04;100.00;101014.97;4989764;28;20061;-77
2022/07/16 04:24:06;;;;;;;6.00;4.15;;;14.30;91.30;;;13.94;100.00;101016.13;4989585;28;20042;-77
2022/07/16 04:26:33;;;;;;;6.97;4.50;;;14.30;91.30;;;13.98;100.00;101015.16;4972437;28;20072;-77
2022/07/16 04:29:00;;;;;;;8.20;5.65;;;14.20;91.50;;;14.02;100.00;101015.00;4987657;28;20503;-77
2022/07/16 04:31:27;;;;;;;7.93;4.35;;;14.20;91.80;;;14.07;100.00;101011.38;5004678;28;20050;-77
2022/07/16 04:33:54;;;;;;;6.95;5.05;;;14.60;92.00;;;14.04;100.00;101015.81;4988222;28;20073;-77
2022/07/16 04:36:21;;;;;;;6.55;5.22;;;14.20;92.00;;;14.17;100.00;101016.38;4988237;28;20399;-77
2022/07/16 04:38:49;;;;;;;6.03;4.38;;;14.20;91.90;;;14.20;100.00;101014.53;4984460;28;20571;-77
2022/07/16 04:41:16;;;;;;;7.07;4.57;;;14.30;91.90;;;14.26;100.00;101017.00;4985285;28;20054;-77
2022/07/16 04:43:43;;;;;;;6.28;4.15;;;14.30;92.30;;;14.28;100.00;101016.06;4988054;28;20125;-77
2022/07/16 04:46:10;;;;;;;6.97;4.03;;;14.40;92.20;;;14.33;100.00;101005.34;4989554;28;20053;-77
2022/07/16 04:48:37;;;;;;;7.90;4.60;;;14.40;91.90;;;14.37;100.00;101008.78;4972061;28;20057;-77
2022/07/16 04:51:04;;;;;;;7.22;4.18;;;14.50;91.90;;;14.40;100.00;101013.97;4987932;28;20038;-78
2022/07/16 04:53:31;;;;;;;8.52;4.32;;;14.50;91.90;;;14.45;100.00;101012.91;4986921;28;20050;-78
2022/07/16 04:55:59;;;;;;;6.40;4.70;;;14.70;91.90;;;14.54;100.00;101018.84;4972375;28;20525;-77
2022/07/16 04:58:26;;;;;;;6.63;4.55;;;14.50;91.60;;;14.45;100.00;101017.34;4989036;28;20088;-77
2022/07/16 05:00:53;;;;;;;6.70;4.50;;;14.60;92.00;;;14.60;100.00;101014.22;4988781;28;20050;-76
2022/07/16 05:03:23;;;;;;;5.47;4.80;;;14.60;91.90;;;14.73;100.00;101029.78;4986954;28;20042;-77
2022/07/16 05:05:50;;;;;;;6.32;4.50;;;14.70;91.60;;;14.73;100.00;101024.47;4988245;28;20046;-77
2022/07/16 05:08:17;;;;;;;5.35;4.55;;;14.70;91.40;;;14.65;100.00;101023.81;4972263;28;20069;-76
2022/07/16 05:10:44;;;;;;;6.00;4.80;;;14.80;91.80;;;14.82;100.00;101029.47;4987857;28;20042;-77
2022/07/16 05:13:11;;;;;;;6.50;4.88;;;14.90;91.90;;;14.92;100.00;101031.84;4987997;28;20495;-76
2022/07/16 05:15:39;;;;;;;9.40;5.28;;;14.90;92.00;;;14.89;100.00;101032.78;4988719;28;20038;-77
2022/07/16 05:18:06;;;;;;;7.50;5.00;;;15.00;91.90;;;14.92;100.00;101029.19;4988446;28;20046;-77
2022/07/16 05:20:33;;;;;;;6.35;4.63;;;14.90;92.10;;;15.02;100.00;101030.66;4987090;28;20046;-76
2022/07/16 05:23:00;;;;;;;9.68;4.72;;;15.00;91.90;;;15.08;100.00;101040.19;4988322;28;20043;-77
2022/07/16 05:25:28;;;;;;;6.55;4.57;;;15.00;92.00;;;15.15;100.00;101034.63;4989537;28;20054;-77
2022/07/16 05:27:55;;;;;;;7.57;4.45;;;15.10;91.90;;;15.23;100.00;101039.69;4972850;28;20507;-77
2022/07/16 05:30:22;;;;;;;7.63;5.05;;;15.20;92.20;;;15.26;100.00;101034.28;4954993;28;20047;-77
2022/07/16 05:32:50;;;;;;;7.22;4.00;;;15.30;92.00;;;15.35;100.00;101041.06;4963972;28;20420;-77
2022/07/16 05:35:17;;;;;;;4.28;3.85;;;15.30;91.90;;;15.41;100.00;101035.53;4971994;28;20582;-77
2022/07/16 05:37:44;;;;;;;4.60;3.88;;;15.30;91.30;;;15.45;100.00;101047.81;4988482;28;20396;-77
2022/07/16 05:40:12;;;;;;;7.10;4.18;;;15.40;91.20;;;15.50;100.00;101038.81;4987397;28;20072;-77
2022/07/16 05:42:40;;;;;;;6.10;4.28;;;15.40;91.40;;;15.62;100.00;101048.13;4987986;28;20145;-76
2022/07/16 05:45:14;;;;;;;9.13;4.07;;;15.50;91.10;;;15.72;100.00;101054.84;4988047;28;20050;-76
2022/07/16 05:47:42;;;;;;;8.32;3.97;;;15.60;90.80;;;15.73;100.00;101043.31;4976999;28;20046;-76
2022/07/16 05:50:09;;;;;;;9.55;3.78;;;15.70;90.80;;;15.83;100.00;101046.53;4983666;28;20042;-77
2022/07/16 05:52:37;;;;;;;6.25;4.20;;;15.70;90.40;;;15.91;100.00;101046.28;4971191;28;20389;-77
2022/07/16 05:55:04;;;;;;;5.78;4.18;;;15.90;90.30;;;15.94;100.00;101040.84;4987762;28;20431;-77
2022/07/16 05:57:32;;;;;;;5.18;4.07;;;15.80;90.50;;;15.95;100.00;101056.75;4988067;28;20467;-77
2022/07/16 05:59:59;;;;;;;6.20;3.78;;;16.00;90.40;;;15.98;100.00;101053.09;4988326;28;20158;-77
2022/07/16 06:02:26;;;;;;;6.93;4.35;;;15.90;90.40;;;16.00;100.00;101054.78;4971318;28;20407;-77
2022/07/16 06:04:53;;;;;;;5.50;3.83;;;16.00;90.80;;;16.11;100.00;101054.38;4990156;28;20525;-76
2022/07/16 06:07:20;;;;;;;9.68;4.00;;;16.00;90.00;;;16.14;100.00;101058.72;4975116;28;20054;-77
2022/07/16 06:09:47;;;;;;;5.78;3.78;;;16.00;89.90;;;16.21;100.00;101051.41;4991665;28;20046;-78
2022/07/16 06:12:14;;;;;;;9.20;4.60;;;16.10;90.30;;;16.23;100.00;101047.75;4994929;28;20049;-79
2022/07/16 06:14:41;;;;;;;7.38;4.18;;;16.50;90.50;;;16.32;100.00;101056.31;4977915;28;20057;-78
2022/07/16 06:17:08;;;;;;;6.20;3.08;;;17.40;90.50;;;16.43;100.00;101054.13;4990549;28;20046;-78
2022/07/16 06:19:35;;;;;;;7.53;3.70;;;16.30;89.40;;;16.52;100.00;101060.88;4958270;28;20046;-79
2022/07/16 06:22:02;;;;;;;7.82;3.53;;;16.30;89.60;;;16.52;100.00;101056.41;4957692;28;20046;-78
2022/07/16 06:24:29;;;;;;;6.88;3.53;;;16.40;89.70;;;16.70;100.00;101064.59;4973686;28;20049;-79
2022/07/16 06:26:56;;;;;;;9.77;3.88;;;16.50;89.90;;;16.87;100.00;101063.97;4974681;28;20053;-78
2022/07/16 06:29:23;;;;;;;6.05;3.65;;;16.60;90.00;;;17.01;100.00;101071.41;4977578;28;20035;-77
2022/07/16 06:31:50;;;;;;;6.88;3.15;;;16.80;89.40;;;17.03;100.00;101055.41;4957454;28;20057;-79
2022/07/16 06:34:17;;;;;;;7.30;3.45;;;16.90;88.90;;;17.22;100.00;101075.00;4984516;28;20050;-79
2022/07/16 06:36:44;;;;;;;5.70;3.22;;;17.00;89.10;;;17.35;100.00;101072.72;4992265;28;20085;-79
2022/07/16 06:39:11;;;;;;;4.80;3.10;;;17.10;87.80;;;17.46;98.95;101071.38;4975865;28;20060;-79
2022/07/16 06:41:39;;;;;;;6.95;3.75;;;17.20;86.20;;;17.52;97.40;101073.81;4993001;28;20696;-78
2022/07/16 06:44:09;;;;;;;6.00;3.33;;;17.30;85.50;;;17.68;94.53;101074.00;4992024;28;20049;-78
2022/07/16 06:46:36;;;;;;;5.53;3.25;;;17.40;84.60;;;17.69;92.45;101070.41;4973837;28;20061;-78
2022/07/16 06:49:04;;;;;;;6.85;2.97;;;17.50;83.80;;;17.78;90.29;101078.00;4960132;28;20062;-78
2022/07/16 06:51:31;;;;;;;7.97;3.20;;;17.50;83.10;;;17.91;88.85;101077.50;4975508;28;20050;-78
2022/07/16 06:53:58;;;;;;;8.13;2.85;;;17.80;82.90;;;18.05;85.41;101075.13;4976064;28;20468;-78
2022/07/16 06:56:26;;;;;;;11.25;3.58;;;17.80;82.00;;;18.14;85.51;101076.50;4991540;28;20381;-78
2022/07/16 06:58:53;;;;;;;6.53;2.70;;;17.90;81.80;;;18.25;84.58;101076.03;4990216;28;20043;-79
2022/07/16 07:01:20;;;;;;;4.25;2.50;;;18.00;81.50;;;18.39;82.80;101083.38;4962069;28;20047;-79
2022/07/16 07:03:47;;;;;;;4.90;2.22;;;18.10;81.20;;;18.48;79.94;101087.41;4959546;28;20057;-79
2022/07/16 07:06:15;;;;;;;6.15;2.70;;;18.20;80.30;;;18.54;79.60;101088.00;4967667;28;20080;-80
2022/07/16 07:08:43;;;;;;;7.30;2.83;;;18.30;80.10;;;18.65;80.41;101084.00;4985295;28;20053;-79
2022/07/16 07:11:17;;;;;;;6.28;2.90;;;18.30;80.10;;;18.82;82.64;101083.19;4977444;28;20097;-79
2022/07/16 07:13:48;;;;;;;6.20;2.92;;;18.50;80.60;;;18.86;81.29;101082.13;4970086;28;20105;-79
2022/07/16 07:16:16;;;;;;;4.80;2.70;;;18.60;80.20;;;18.94;80.08;101087.06;4972700;28;20043;-79
2022/07/16 07:18:46;;;;;;;5.70;2.58;;;18.70;79.80;;;19.01;78.57;101085.03;4994239;28;20062;-77
2022/07/16 07:21:14;;;;;;;5.65;3.13;;;18.80;79.40;;;19.07;77.93;101071.38;4964702;28;20579;-80
2022/07/16 07:23:41;;;;;;;4.38;2.72;;;18.80;79.20;;;19.17;78.15;101075.34;4980012;28;20050;-80
2022/07/16 07:26:08;;;;;;;4.10;2.28;;;18.90;79.20;;;19.29;78.09;101086.34;4993390;28;20371;-79
2022/07/16 07:28:35;;;;;;;5.75;2.50;;;19.00;79.20;;;19.29;77.47;101079.19;4969259;28;20448;-79
2022/07/16 07:31:03;;;;;;;5.25;3.00;;;19.00;78.90;;;19.35;76.54;101080.69;4981894;28;20058;-76
2022/07/16 07:33:30;;;;;;;7.78;2.63;;;19.10;78.80;;;19.37;73.59;101084.16;4988566;28;20045;-78
2022/07/16 07:35:57;;;;;;;10.00;2.70;;;19.10;78.10;;;19.46;75.34;101078.38;4974893;28;20063;-79
2022/07/16 07:38:25;;;;;;;5.32;2.78;;;19.10;78.30;;;19.53;80.52;101074.44;4975091;28;20323;-78
2022/07/16 07:40:52;;;;;;;8.48;3.03;;;19.20;79.40;;;19.63;76.21;101073.97;4975078;28;20148;-78
2022/07/16 07:43:19;;;;;;;5.55;2.80;;;19.30;78.60;;;19.67;67.57;101071.06;4974750;28;20060;-79
2022/07/16 07:45:46;;;;;;;6.00;2.45;;;19.40;76.30;;;19.79;70.17;101080.25;4959342;28;20043;-78
2022/07/16 07:48:13;;;;;;;4.75;2.35;;;19.40;76.80;;;19.89;71.94;101077.09;4992063;28;20050;-78
2022/07/16 07:50:40;;;;;;;5.80;2.35;;;19.60;77.30;;;19.89;65.50;101075.28;4940698;28;20495;-77
2022/07/16 07:53:08;;;;;;;7.28;2.40;;;19.60;75.60;;;20.03;65.79;101084.44;4972283;28;20137;-79
2022/07/16 07:55:35;;;;;;;8.48;2.22;;;19.70;75.50;;;20.12;62.12;101075.91;4956874;28;20043;-79
2022/07/16 07:58:02;;;;;;;4.40;2.78;;;19.80;74.40;;;20.25;64.58;101073.47;4956200;28;20039;-78
2022/07/16 08:00:30;;;;;;;5.22;2.25;;;19.90;75.00;;;20.40;62.27;101079.78;4971217;28;20050;-80
2022/07/16 08:02:57;;;;;;;3.28;1.90;;;20.10;74.30;;;20.48;58.72;101076.69;4974589;28;20046;-80
2022/07/16 08:05:25;;;;;;;7.15;2.35;;;20.70;73.40;;;20.51;56.58;101069.38;4991205;28;20073;-80
2022/07/16 08:07:53;;;;;;;6.78;2.38;;;20.20;72.30;;;20.66;58.60;101077.50;4991497;28;20046;-79
2022/07/16 08:10:20;;;;;;;5.90;1.98;;;20.30;73.00;;;20.75;56.60;101079.63;4990695;28;20683;-80
2022/07/16 08:12:48;;;;;;;2.95;1.60;;;20.40;72.10;;;20.82;55.05;101075.72;4979865;28;20476;-79
2022/07/16 08:15:15;;;;;;;5.65;1.75;;;20.50;71.50;;;20.85;52.98;101069.34;4975422;28;20042;-79
2022/07/16 08:17:42;;;;;;;9.18;2.85;;;20.60;70.40;;;20.93;55.78;101082.28;4989819;28;20573;-79
2022/07/16 08:20:11;;;;;;;4.47;2.30;;;20.60;71.50;;;20.94;54.07;101076.84;4970778;28;20539;-80
2022/07/16 08:22:38;;;;;;;7.35;2.08;;;20.70;70.50;;;21.07;54.75;101077.03;4990811;28;20057;-79
2022/07/16 08:27:53;;;;;;;4.35;1.45;;;20.80;70.60;;;21.27;54.14;101079.47;4987401;28;20545;-80
2022/07/16 08:30:21;;;;;;;4.97;2.17;;;20.90;70.40;;;21.30;54.15;101080.16;4984946;28;20721;-78
2022/07/16 08:32:49;;;;;;;4.35;1.80;;;21.00;70.40;;;21.33;53.66;101073.78;4988665;28;20057;-80
2022/07/16 08:35:16;;;;;;;6.60;1.63;;;21.00;70.00;;;21.45;52.64;101073.03;4958387;28;20133;-80
2022/07/16 08:37:46;;;;;;;4.30;1.40;;;21.10;69.80;;;21.54;49.69;101079.66;4990312;28;20056;-77
2022/07/16 08:40:22;;;;;;;2.47;1.20;;;21.20;68.00;;;21.61;49.09;101073.00;4985125;28;20062;-78
2022/07/16 08:42:51;;;;;;;3.70;1.65;;;21.30;67.60;;;21.70;47.26;101073.44;4985409;28;20317;-81
2022/07/16 08:45:22;;;;;;;3.60;1.33;;;21.40;66.50;;;21.76;48.98;101075.75;4972728;28;20049;-78
2022/07/16 08:47:52;;;;;;;3.88;1.52;;;21.40;67.40;;;21.76;48.67;101067.72;4957487;28;20287;-79
2022/07/16 08:50:22;;;;;;;5.30;1.50;;;21.40;67.10;;;21.76;46.81;101065.03;4985784;28;20046;-78
2022/07/16 08:52:53;;;;;;;5.93;1.75;;;21.50;65.90;;;21.85;50.24;101064.47;4954004;28;20055;-79
2022/07/16 08:55:26;;;;;;;3.50;1.70;;;21.50;67.90;;;21.92;47.25;101065.84;4969668;28;20069;-73
2022/07/16 08:57:56;;;;;;;6.60;2.00;;;21.60;66.40;;;21.92;48.00;101068.53;4970924;28;20914;-76
2022/07/16 09:00:23;;;;;;;4.38;1.92;;;21.60;66.30;;;21.99;47.88;101058.28;4981723;28;20101;-74
2022/07/16 09:02:50;;;;;;;2.92;1.65;;;21.70;66.20;;;22.03;47.98;101057.13;4986249;28;20496;-77
2022/07/16 09:05:17;;;;;;;4.32;2.00;;;21.70;66.20;;;22.17;47.51;101068.81;4967451;28;20137;-75
2022/07/16 09:07:45;;;;;;;3.60;1.75;;;21.80;66.00;;;22.20;45.57;101064.16;4960758;28;20613;-74
2022/07/16 09:10:12;;;;;;;4.60;1.75;;;21.90;64.60;;;22.33;45.92;101063.38;4987268;28;20049;-75
2022/07/16 09:12:48;;;;;;;6.80;1.70;;;21.90;64.70;;;22.45;45.10;101062.59;5002542;28;20046;-75
2022/07/16 09:15:40;;;;;;;3.25;1.70;;;22.10;64.20;;;22.38;42.76;101062.09;4989365;28;20766;-77
2022/07/16 09:18:16;;;;;;;6.88;1.70;;;22.10;62.00;;;22.61;45.75;101058.97;4981928;28;20038;-77
2022/07/16 09:20:57;;;;;;;6.32;2.17;;;22.20;65.20;;;22.65;44.85;101065.88;4980651;28;20112;-77
2022/07/16 09:23:35;;;;;;;2.58;1.25;;;22.30;63.70;;;22.71;44.94;101062.78;4993705;28;20074;-77
2022/07/16 09:26:25;;;;;;;5.25;1.58;;;22.40;63.90;;;22.67;42.72;101062.09;4995283;28;20047;-76
2022/07/16 09:28:54;;;;;;;6.78;1.88;;;22.40;62.20;;;22.77;43.96;101066.91;4975072;28;20113;-77
2022/07/16 09:31:41;;;;;;;2.47;1.30;;;22.40;63.10;;;22.90;45.07;101058.91;4975133;28;20106;-76
2022/07/16 09:34:15;;;;;;;4.18;1.55;;;22.50;63.40;;;23.01;45.37;101080.53;4975860;28;20043;-77
2022/07/16 09:37:04;;;;;;;6.53;2.45;;;22.60;64.10;;;23.08;44.20;101078.31;4965107;28;20043;-77
2022/07/16 09:39:34;;;;;;;4.07;1.60;;;22.70;63.20;;;23.08;41.15;101081.84;4974412;28;20054;-77
2022/07/16 09:42:02;;;;;;;2.47;1.60;;;22.80;60.50;;;23.09;42.30;101069.28;4989005;28;20054;-79
2022/07/16 09:44:33;;;;;;;2.95;1.60;;;22.80;61.30;;;23.12;43.63;101074.44;4970472;28;20054;-78
2022/07/16 09:47:06;;;;;;;4.13;1.95;;;22.80;62.40;;;23.21;42.70;101073.84;4982297;28;20113;-77
2022/07/16 09:49:37;;;;;;;5.22;2.28;;;22.90;61.60;;;23.27;43.30;101069.06;4972747;28;20102;-80
2022/07/16 09:52:31;;;;;;;4.43;2.38;;;23.00;62.10;;;23.39;42.42;101076.28;4985944;28;20595;-78
2022/07/16 09:55:02;;;;;;;8.43;2.25;;;23.00;61.30;;;23.30;42.44;101068.84;4955115;28;20396;-76
2022/07/16 09:57:30;;;;;;;3.95;1.67;;;23.00;61.10;;;23.39;42.20;101068.25;4957504;28;20050;-77
2022/07/16 09:59:59;;;;;;;2.72;1.83;;;23.00;61.00;;;23.48;42.42;101074.81;4966248;28;20039;-76
2022/07/16 10:02:41;;;;;;;4.13;1.77;;;23.10;61.20;;;23.57;42.32;101081.38;4984241;28;20058;-76
2022/07/16 10:05:20;;;;;;;2.25;1.75;;;23.10;61.10;;;23.62;41.85;101057.75;4977516;28;20049;-76
2022/07/16 10:07:51;;;;;;;4.38;1.98;;;23.20;60.90;;;23.64;40.90;101061.19;4985790;28;20047;-75
2022/07/16 10:10:21;;;;;;;;;;;23.30;60.20;;;23.71;40.04;101069.69;4989440;28;20060;-75
2022/07/16 10:12:55;;;;;;;3.90;1.60;;;22.70;59.00;;;23.78;40.50;101061.09;4999641;28;20013;-76
2022/07/16 10:15:32;;;;;;;3.08;2.08;;;23.40;59.60;;;23.89;41.21;101056.81;4956560;28;20042;-74
2022/07/16 10:18:00;;;;;;;2.22;1.80;;;23.40;60.50;;;23.96;41.97;101065.31;4989579;28;20093;-76
2022/07/16 10:20:56;;;;;;;3.50;1.58;;;23.60;60.70;;;24.15;41.62;101068.44;4981021;28;20666;-77